createdAt,value
2019-01-16T00:00:03.668Z,88.2
2019-01-16T00:01:03.198Z,90.5
2019-01-16T00:02:03.481Z,88.6
2019-01-16T00:03:03.025Z,88.9
2019-01-16T00:04:02.814Z,87.9
2019-01-16T00:05:03.132Z,88.6
2019-01-16T00:06:03.503Z,88.4
2019-01-16T00:07:03.123Z,89.3
2019-01-16T00:08:03.593Z,89.8
2019-01-16T00:09:03.143Z,89.8
2019-01-16T00:10:03.785Z,90
2019-01-16T00:11:03.360Z,89.1
2019-01-16T00:12:03.552Z,90.3
2019-01-16T00:13:03.561Z,87.9
2019-01-16T00:14:03.032Z,88.9
2019-01-16T00:15:03.224Z,87.5
2019-01-16T00:16:02.888Z,86.8
2019-01-16T00:17:02.754Z,87
2019-01-16T00:18:03.119Z,87
2019-01-16T00:19:03.614Z,84.2
2019-01-16T00:20:03.588Z,86.1
2019-01-16T00:21:02.892Z,85.4
2019-01-16T00:22:03.402Z,85.6
2019-01-16T00:23:02.927Z,85.6
2019-01-16T00:24:03.678Z,84
2019-01-16T00:25:03.240Z,84
2019-01-16T00:26:03.604Z,82.8
2019-01-16T00:27:03.353Z,84.9
2019-01-16T00:28:02.729Z,85.8
2019-01-16T00:29:02.977Z,85.8
2019-01-16T00:30:03.183Z,88.9
2019-01-16T00:31:02.908Z,87.5
2019-01-16T00:32:02.855Z,87.7
2019-01-16T00:33:03.455Z,88.9
2019-01-16T00:34:02.996Z,87.9
2019-01-16T00:35:03.325Z,87
2019-01-16T00:36:02.919Z,88.4
2019-01-16T00:37:03.290Z,89.1
2019-01-16T00:38:02.741Z,88.2
2019-01-16T00:39:03.359Z,87.2
2019-01-16T00:40:03.404Z,87.9
2019-01-16T00:41:03.138Z,86.3
2019-01-16T00:42:03.317Z,87.2
2019-01-16T00:43:02.890Z,87
2019-01-16T00:44:03.183Z,89.1
2019-01-16T00:45:03.781Z,87.7
2019-01-16T00:46:02.728Z,88.9
2019-01-16T00:47:03.317Z,88.9
2019-01-16T00:48:03.006Z,88.2
2019-01-16T00:49:02.918Z,89.1
2019-01-16T00:50:03.157Z,89.6
2019-01-16T00:51:03.672Z,87.7
2019-01-16T00:52:03.203Z,90
2019-01-16T00:53:02.969Z,90.3
2019-01-16T00:54:03.094Z,91
2019-01-16T00:55:03.736Z,91.4
2019-01-16T00:56:03.738Z,93.3
2019-01-16T00:57:03.009Z,93.5
2019-01-16T00:58:03.572Z,94.7
2019-01-16T00:59:03.561Z,96.3
2019-01-16T01:00:03.656Z,94.2
2019-01-16T01:01:02.954Z,96.3
2019-01-16T01:02:03.447Z,95.4
2019-01-16T01:03:02.854Z,94.7
2019-01-16T01:04:02.719Z,94
2019-01-16T01:05:03.231Z,95.4
2019-01-16T01:06:03.770Z,95.9
2019-01-16T01:07:03.180Z,95.6
2019-01-16T01:08:02.907Z,97
2019-01-16T01:09:03.390Z,96.6
2019-01-16T01:10:03.193Z,96.3
2019-01-16T01:11:02.903Z,94.2
2019-01-16T01:12:03.432Z,96.6
2019-01-16T01:13:03.454Z,94.9
2019-01-16T01:14:02.910Z,96.6
2019-01-16T01:15:03.419Z,97.3
2019-01-16T01:16:03.348Z,96.3
2019-01-16T01:17:02.782Z,98.9
2019-01-16T01:18:02.933Z,97
2019-01-16T01:19:03.205Z,97.3
2019-01-16T01:20:02.608Z,98
2019-01-16T01:21:03.404Z,97.7
2019-01-16T01:22:03.232Z,97.3
2019-01-16T01:23:03.438Z,99.8
2019-01-16T01:24:03.171Z,99.4
2019-01-16T01:25:02.970Z,99.1
2019-01-16T01:26:02.863Z,100.1
2019-01-16T01:27:03.586Z,98.4
2019-01-16T01:28:03.414Z,99.1
2019-01-16T01:29:03.364Z,97
2019-01-16T01:30:03.498Z,98.2
2019-01-16T01:31:02.738Z,97.5
2019-01-16T01:32:03.378Z,97
2019-01-16T01:33:03.402Z,98.2
2019-01-16T01:34:02.879Z,98.9
2019-01-16T01:35:03.261Z,97
2019-01-16T01:36:03.157Z,97
2019-01-16T01:37:03.597Z,97.5
2019-01-16T01:38:02.934Z,94.9
2019-01-16T01:39:03.056Z,94.7
2019-01-16T01:40:03.692Z,95.6
2019-01-16T01:41:03.539Z,94.5
2019-01-16T01:42:03.204Z,95.6
2019-01-16T01:43:02.974Z,93.8
2019-01-16T01:44:02.730Z,95.6
2019-01-16T01:45:03.293Z,95.4
2019-01-16T01:46:02.921Z,94
2019-01-16T01:47:03.493Z,95.2
2019-01-16T01:48:03.108Z,95.2
2019-01-16T01:49:02.822Z,96.8
2019-01-16T01:50:03.146Z,95.4
2019-01-16T01:51:03.605Z,94.9
2019-01-16T01:52:02.637Z,94.5
2019-01-16T01:53:03.726Z,93.5
2019-01-16T01:54:02.712Z,94
2019-01-16T01:55:03.363Z,91.7
2019-01-16T01:56:03.440Z,92.4
2019-01-16T01:57:02.877Z,93.1
2019-01-16T01:58:02.989Z,93.8
2019-01-16T01:59:03.129Z,93.3
2019-01-16T02:00:03.299Z,93.3
2019-01-16T02:01:03.454Z,92.4
2019-01-16T02:02:03.527Z,93.8
2019-01-16T02:03:03.764Z,92.1
2019-01-16T02:04:03.595Z,93.8
2019-01-16T02:05:03.625Z,94.7
2019-01-16T02:06:03.373Z,94
2019-01-16T02:07:02.675Z,91.9
2019-01-16T02:08:03.554Z,91.9
2019-01-16T02:09:03.798Z,92.1
2019-01-16T02:10:03.581Z,91.9
2019-01-16T02:11:02.997Z,91.7
2019-01-16T02:12:03.502Z,92.6
2019-01-16T02:13:03.630Z,92.1
2019-01-16T02:14:02.795Z,92.8
2019-01-16T02:15:03.364Z,93.1
2019-01-16T02:16:03.484Z,92.6
2019-01-16T02:17:02.919Z,93.1
2019-01-16T02:18:03.540Z,92.6
2019-01-16T02:19:03.045Z,92.4
2019-01-16T02:20:03.072Z,93.8
2019-01-16T02:21:03.463Z,92.1
2019-01-16T02:22:03.512Z,92.8
2019-01-16T02:23:03.446Z,92.8
2019-01-16T02:24:03.574Z,93.3
2019-01-16T02:25:03.382Z,91.9
2019-01-16T02:26:03.762Z,94.2
2019-01-16T02:27:02.942Z,92.1
2019-01-16T02:28:03.259Z,94.2
2019-01-16T02:29:03.302Z,92.1
2019-01-16T02:30:03.128Z,92.6
2019-01-16T02:31:03.186Z,91.7
2019-01-16T02:32:03.612Z,91.7
2019-01-16T02:33:03.486Z,92.1
2019-01-16T02:34:03.650Z,92.4
2019-01-16T02:35:03.663Z,91.2
2019-01-16T02:36:03.480Z,91.9
2019-01-16T02:37:03.462Z,93.3
2019-01-16T02:38:02.837Z,91.4
2019-01-16T02:39:03.049Z,92.8
2019-01-16T02:40:02.963Z,92.6
2019-01-16T02:41:02.802Z,94
2019-01-16T02:42:02.830Z,92.4
2019-01-16T02:43:02.699Z,94.5
2019-01-16T02:44:03.124Z,94.9
2019-01-16T02:45:03.535Z,94.7
2019-01-16T02:46:03.241Z,93.8
2019-01-16T02:47:03.168Z,92.4
2019-01-16T02:48:03.046Z,92.4
2019-01-16T02:49:02.848Z,93.3
2019-01-16T02:50:03.401Z,92.1
2019-01-16T02:51:03.198Z,90.5
2019-01-16T02:52:04.049Z,91.9
2019-01-16T02:53:03.780Z,92.4
2019-01-16T02:54:02.787Z,93.3
2019-01-16T02:55:03.217Z,93.1
2019-01-16T02:56:03.378Z,92.1
2019-01-16T02:57:02.976Z,94.9
2019-01-16T02:58:03.277Z,94.2
2019-01-16T02:59:03.102Z,93.8
2019-01-16T03:00:02.948Z,92.8
2019-01-16T03:01:03.536Z,92.8
2019-01-16T03:02:03.685Z,93.1
2019-01-16T03:03:02.855Z,92.1
2019-01-16T03:04:02.937Z,92.1
2019-01-16T03:05:03.024Z,92.1
2019-01-16T03:06:03.720Z,91.7
2019-01-16T03:07:03.287Z,90.5
2019-01-16T03:08:02.745Z,91.2
2019-01-16T03:09:03.482Z,91
2019-01-16T03:10:03.317Z,90.7
2019-01-16T03:11:02.859Z,90.7
2019-01-16T03:12:03.273Z,90
2019-01-16T03:13:03.156Z,89.8
2019-01-16T03:14:03.813Z,90.7
2019-01-16T03:15:03.308Z,90
2019-01-16T03:16:02.953Z,91
2019-01-16T03:17:03.583Z,90.7
2019-01-16T03:18:02.924Z,92.1
2019-01-16T03:19:05.033Z,93.1
2019-01-16T03:20:03.560Z,94.5
2019-01-16T03:21:02.978Z,92.8
2019-01-16T03:22:03.678Z,94.5
2019-01-16T03:23:03.094Z,92.6
2019-01-16T03:24:03.563Z,94.5
2019-01-16T03:25:03.822Z,94.5
2019-01-16T03:26:03.159Z,93.5
2019-01-16T03:27:03.103Z,93.1
2019-01-16T03:28:03.159Z,94.2
2019-01-16T03:29:02.726Z,92.1
2019-01-16T03:30:03.511Z,94.5
2019-01-16T03:31:03.576Z,92.8
2019-01-16T03:32:03.161Z,93.1
2019-01-16T03:33:03.396Z,92.6
2019-01-16T03:34:02.787Z,93.5
2019-01-16T03:35:03.481Z,93.3
2019-01-16T03:36:02.891Z,95.4
2019-01-16T03:37:02.939Z,94.5
2019-01-16T03:38:03.278Z,93.8
2019-01-16T03:39:02.771Z,94.5
2019-01-16T03:40:03.804Z,93.1
2019-01-16T03:41:03.200Z,94
2019-01-16T03:42:03.037Z,93.8
2019-01-16T03:43:03.363Z,92.6
2019-01-16T03:44:03.468Z,94.9
2019-01-16T03:45:03.608Z,93.5
2019-01-16T03:46:02.878Z,93.1
2019-01-16T03:47:03.407Z,92.6
2019-01-16T03:48:03.585Z,94
2019-01-16T03:49:03.211Z,95.6
2019-01-16T03:50:02.859Z,95.2
2019-01-16T03:51:02.730Z,95.2
2019-01-16T03:52:02.880Z,96.1
2019-01-16T03:53:03.676Z,95.6
2019-01-16T03:54:03.180Z,96.6
2019-01-16T03:55:03.080Z,94.9
2019-01-16T03:56:03.125Z,94.7
2019-01-16T03:57:02.861Z,93.3
2019-01-16T03:58:02.859Z,93.1
2019-01-16T03:59:03.641Z,94.5
2019-01-16T04:00:03.555Z,94.2
2019-01-16T04:01:03.157Z,93.5
2019-01-16T04:02:02.872Z,97.3
2019-01-16T04:03:03.587Z,95.2
2019-01-16T04:04:03.822Z,96.8
2019-01-16T04:05:03.577Z,97
2019-01-16T04:06:03.823Z,97.7
2019-01-16T04:07:03.050Z,97.5
2019-01-16T04:08:03.135Z,100.3
2019-01-16T04:09:03.179Z,98.4
2019-01-16T04:10:03.043Z,99.8
2019-01-16T04:11:03.593Z,100.5
2019-01-16T04:12:02.899Z,101
2019-01-16T04:13:03.332Z,100.8
2019-01-16T04:14:02.862Z,101.7
2019-01-16T04:15:03.277Z,102.4
2019-01-16T04:16:03.048Z,101
2019-01-16T04:17:02.802Z,101.5
2019-01-16T04:18:03.188Z,101.9
2019-01-16T04:19:03.407Z,101
2019-01-16T04:20:03.116Z,101.5
2019-01-16T04:21:02.789Z,101
2019-01-16T04:22:02.975Z,101
2019-01-16T04:23:03.020Z,100.8
2019-01-16T04:24:03.182Z,100.5
2019-01-16T04:25:03.414Z,99.1
2019-01-16T04:26:03.279Z,100.5
2019-01-16T04:27:03.493Z,100.3
2019-01-16T04:28:03.587Z,100.8
2019-01-16T04:29:02.775Z,101.5
2019-01-16T04:30:02.723Z,101.2
2019-01-16T04:31:03.678Z,101.5
2019-01-16T04:32:03.425Z,101.9
2019-01-16T04:33:03.528Z,102.9
2019-01-16T04:34:02.969Z,101
2019-01-16T04:35:03.326Z,102.2
2019-01-16T04:36:02.860Z,100.3
2019-01-16T04:37:03.083Z,101.5
2019-01-16T04:38:03.000Z,101
2019-01-16T04:39:02.997Z,102.2
2019-01-16T04:40:03.078Z,101.5
2019-01-16T04:41:03.179Z,101
2019-01-16T04:42:03.156Z,100.8
2019-01-16T04:43:02.881Z,97
2019-01-16T04:44:03.884Z,98.7
2019-01-16T04:45:02.931Z,96.8
2019-01-16T04:46:03.513Z,96.8
2019-01-16T04:47:03.533Z,94.9
2019-01-16T04:48:02.789Z,94.7
2019-01-16T04:49:03.378Z,94.5
2019-01-16T04:50:03.159Z,94.7
2019-01-16T04:51:03.117Z,95.4
2019-01-16T04:52:03.534Z,94.9
2019-01-16T04:53:02.747Z,96.1
2019-01-16T04:54:03.060Z,94.9
2019-01-16T04:55:03.016Z,94.9
2019-01-16T04:56:02.810Z,95.9
2019-01-16T04:57:02.864Z,94.7
2019-01-16T04:58:02.914Z,94.5
2019-01-16T04:59:02.814Z,95.9
2019-01-16T05:00:02.985Z,94.5
2019-01-16T05:01:03.377Z,93.1
2019-01-16T05:02:03.077Z,92.4
2019-01-16T05:03:03.569Z,93.5
2019-01-16T05:04:03.620Z,92.6
2019-01-16T05:05:03.547Z,91.4
2019-01-16T05:06:03.284Z,92.6
2019-01-16T05:07:03.457Z,91.7
2019-01-16T05:08:03.731Z,91.2
2019-01-16T05:09:03.178Z,90
2019-01-16T05:10:03.314Z,91
2019-01-16T05:11:02.945Z,91.4
2019-01-16T05:12:02.954Z,92.8
2019-01-16T05:13:02.633Z,92.6
2019-01-16T05:14:03.808Z,95.4
2019-01-16T05:15:03.037Z,94.7
2019-01-16T05:16:03.450Z,95.4
2019-01-16T05:17:03.237Z,94.7
2019-01-16T05:18:03.500Z,95.2
2019-01-16T05:19:03.451Z,92.8
2019-01-16T05:20:03.599Z,92.1
2019-01-16T05:21:02.666Z,92.1
2019-01-16T05:22:02.882Z,92.1
2019-01-16T05:23:02.788Z,93.5
2019-01-16T05:24:02.970Z,94
2019-01-16T05:25:02.926Z,93.3
2019-01-16T05:26:03.308Z,94.2
2019-01-16T05:27:02.838Z,93.3
2019-01-16T05:28:03.487Z,93.1
2019-01-16T05:29:03.271Z,92.8
2019-01-16T05:30:03.273Z,92.8
2019-01-16T05:31:02.683Z,92.4
2019-01-16T05:32:03.328Z,92.1
2019-01-16T05:33:03.560Z,93.8
2019-01-16T05:34:03.182Z,93.1
2019-01-16T05:35:03.004Z,93.3
2019-01-16T05:36:03.728Z,93.1
2019-01-16T05:37:02.898Z,94.5
2019-01-16T05:38:02.844Z,93.8
2019-01-16T05:39:02.883Z,93.3
2019-01-16T05:40:03.692Z,92.8
2019-01-16T05:41:03.540Z,93.3
2019-01-16T05:42:02.872Z,94.7
2019-01-16T05:43:03.172Z,95.6
2019-01-16T05:44:02.889Z,94.5
2019-01-16T05:45:03.423Z,96.8
2019-01-16T05:46:03.609Z,97
2019-01-16T05:47:03.430Z,97.5
2019-01-16T05:48:03.182Z,98.7
2019-01-16T05:49:03.394Z,97.7
2019-01-16T05:50:03.493Z,97.7
2019-01-16T05:51:02.739Z,98.2
2019-01-16T05:52:03.450Z,95.6
2019-01-16T05:53:03.504Z,97.7
2019-01-16T05:54:03.101Z,97.3
2019-01-16T05:55:03.711Z,97
2019-01-16T05:56:02.920Z,96.8
2019-01-16T05:57:02.825Z,95.4
2019-01-16T05:58:03.737Z,97
2019-01-16T05:59:02.949Z,95.4
2019-01-16T06:00:03.401Z,97
2019-01-16T06:01:03.537Z,97
2019-01-16T06:02:02.854Z,94.2
2019-01-16T06:03:03.428Z,96.1
2019-01-16T06:04:03.445Z,94.9
2019-01-16T06:05:03.321Z,94.5
2019-01-16T06:06:03.135Z,95.4
2019-01-16T06:07:02.750Z,95.2
2019-01-16T06:08:03.385Z,96.1
2019-01-16T06:09:03.159Z,96.1
2019-01-16T06:10:02.830Z,96.6
2019-01-16T06:11:02.913Z,96.8
2019-01-16T06:12:03.443Z,96.3
2019-01-16T06:13:03.675Z,94.7
2019-01-16T06:14:02.958Z,93.1
2019-01-16T06:15:02.793Z,93.3
2019-01-16T06:16:03.471Z,91.7
2019-01-16T06:17:03.365Z,93.3
2019-01-16T06:18:03.377Z,91.4
2019-01-16T06:19:03.023Z,92.6
2019-01-16T06:20:03.463Z,93.8
2019-01-16T06:21:02.894Z,93.5
2019-01-16T06:22:03.583Z,93.8
2019-01-16T06:23:03.677Z,94.7
2019-01-16T06:24:03.473Z,93.1
2019-01-16T06:25:03.271Z,93.8
2019-01-16T06:26:02.792Z,93.3
2019-01-16T06:27:02.770Z,93.1
2019-01-16T06:28:03.199Z,92.8
2019-01-16T06:29:03.474Z,92.4
2019-01-16T06:30:03.366Z,91
2019-01-16T06:31:03.192Z,92.1
2019-01-16T06:32:03.568Z,90.3
2019-01-16T06:33:03.778Z,90.3
2019-01-16T06:34:03.704Z,91.4
2019-01-16T06:35:03.345Z,91.2
2019-01-16T06:36:03.320Z,91
2019-01-16T06:37:02.927Z,91.7
2019-01-16T06:38:02.875Z,91.4
2019-01-16T06:39:03.767Z,90.7
2019-01-16T06:40:03.691Z,90.7
2019-01-16T06:41:03.314Z,90.7
2019-01-16T06:42:03.412Z,91
2019-01-16T06:43:03.244Z,91.7
2019-01-16T06:44:03.360Z,89.8
2019-01-16T06:45:02.874Z,91
2019-01-16T06:46:03.194Z,89.8
2019-01-16T06:47:03.324Z,91.4
2019-01-16T06:48:02.696Z,91.4
2019-01-16T06:49:02.825Z,91.4
2019-01-16T06:50:03.044Z,93.5
2019-01-16T06:51:03.697Z,91.2
2019-01-16T06:52:03.571Z,91.7
2019-01-16T06:53:03.042Z,92.4
2019-01-16T06:54:02.681Z,91.7
2019-01-16T06:55:03.233Z,91.9
2019-01-16T06:56:02.902Z,92.1
2019-01-16T06:57:02.999Z,93.3
2019-01-16T06:58:03.261Z,95.2
2019-01-16T06:59:03.153Z,94
2019-01-16T07:00:03.080Z,94.7
2019-01-16T07:01:03.095Z,95.4
2019-01-16T07:02:02.967Z,94.9
2019-01-16T07:03:02.630Z,95.6
2019-01-16T07:04:03.585Z,95.2
2019-01-16T07:05:03.206Z,95.4
2019-01-16T07:06:03.383Z,94.2
2019-01-16T07:07:03.599Z,94
2019-01-16T07:08:02.678Z,93.8
2019-01-16T07:09:03.595Z,91.2
2019-01-16T07:10:03.188Z,91.4
2019-01-16T07:11:03.677Z,90
2019-01-16T07:12:02.762Z,90.7
2019-01-16T07:13:03.398Z,91
2019-01-16T07:14:03.035Z,89.1
2019-01-16T07:15:03.395Z,89.3
2019-01-16T07:16:03.476Z,89.8
2019-01-16T07:17:03.633Z,88.2
2019-01-16T07:18:02.995Z,89.1
2019-01-16T07:19:03.542Z,87.9
2019-01-16T07:20:10.197Z,89.1
2019-01-16T07:21:03.013Z,89.3
2019-01-16T07:22:03.577Z,87.7
2019-01-16T07:23:02.943Z,90.5
2019-01-16T07:24:03.296Z,88.2
2019-01-16T07:25:02.886Z,88.4
2019-01-16T07:26:03.343Z,90.3
2019-01-16T07:27:03.048Z,91.2
2019-01-16T07:28:03.172Z,89.6
2019-01-16T07:29:02.870Z,91.2
2019-01-16T07:30:03.131Z,89.3
2019-01-16T07:31:02.964Z,89.6
2019-01-16T07:32:03.437Z,89.6
2019-01-16T07:33:03.528Z,90.5
2019-01-16T07:34:03.721Z,90
2019-01-16T07:35:03.488Z,88.9
2019-01-16T07:36:03.679Z,90.5
2019-01-16T07:37:03.224Z,89.3
2019-01-16T07:38:03.325Z,90.7
2019-01-16T07:39:03.636Z,89.6
2019-01-16T07:40:03.333Z,89.8
2019-01-16T07:41:02.965Z,89.8
2019-01-16T07:42:03.615Z,91
2019-01-16T07:43:03.489Z,90.5
2019-01-16T07:44:03.428Z,91.4
2019-01-16T07:45:03.295Z,89.6
2019-01-16T07:46:03.027Z,90.5
2019-01-16T07:47:02.968Z,90.5
2019-01-16T07:48:03.133Z,89.6
2019-01-16T07:49:02.858Z,89.8
2019-01-16T07:50:03.321Z,90
2019-01-16T07:51:02.546Z,87.9
2019-01-16T07:52:02.816Z,86.8
2019-01-16T07:53:02.955Z,87.9
2019-01-16T07:54:02.770Z,85.8
2019-01-16T07:55:03.233Z,87
2019-01-16T07:56:02.685Z,87
2019-01-16T07:57:03.244Z,86.5
2019-01-16T07:58:03.794Z,87.7
2019-01-16T07:59:03.375Z,85.8
2019-01-16T08:00:03.117Z,85.4
2019-01-16T08:01:03.011Z,85.4
2019-01-16T08:02:03.657Z,84.9
2019-01-16T08:03:03.581Z,85.8
2019-01-16T08:04:03.235Z,87.2
2019-01-16T08:05:03.514Z,88.4
2019-01-16T08:06:03.400Z,90
2019-01-16T08:07:03.116Z,91.4
2019-01-16T08:08:02.912Z,92.6
2019-01-16T08:09:03.114Z,93.5
2019-01-16T08:10:02.758Z,93.3
2019-01-16T08:11:03.527Z,94.5
2019-01-16T08:12:03.298Z,94.2
2019-01-16T08:13:03.197Z,95.4
2019-01-16T08:14:03.029Z,94
2019-01-16T08:15:02.994Z,97
2019-01-16T08:16:03.218Z,97
2019-01-16T08:17:03.347Z,96.6
2019-01-16T08:18:03.255Z,99.1
2019-01-16T08:19:03.234Z,96.8
2019-01-16T08:20:03.533Z,95.9
2019-01-16T08:21:02.628Z,97.5
2019-01-16T08:22:03.409Z,95.6
2019-01-16T08:23:02.850Z,95.6
2019-01-16T08:24:02.741Z,96.8
2019-01-16T08:25:03.310Z,94
2019-01-16T08:26:03.063Z,95.2
2019-01-16T08:27:02.846Z,95.6
2019-01-16T08:28:02.779Z,94.2
2019-01-16T08:29:03.190Z,95.9
2019-01-16T08:30:03.170Z,94.9
2019-01-16T08:31:03.526Z,94.5
2019-01-16T08:32:03.171Z,96.1
2019-01-16T08:33:03.454Z,96.6
2019-01-16T08:34:02.652Z,97.5
2019-01-16T08:35:03.283Z,95.9
2019-01-16T08:36:02.899Z,97
2019-01-16T08:37:03.607Z,95.9
2019-01-16T08:38:02.760Z,96.1
2019-01-16T08:39:02.826Z,96.1
2019-01-16T08:40:03.770Z,96.1
2019-01-16T08:41:03.416Z,97.3
2019-01-16T08:42:03.228Z,96.8
2019-01-16T08:43:03.195Z,96.3
2019-01-16T08:44:03.447Z,97.5
2019-01-16T08:45:03.583Z,98.9
2019-01-16T08:46:03.033Z,98.2
2019-01-16T08:47:02.935Z,98.4
2019-01-16T08:48:03.197Z,97.3
2019-01-16T08:49:03.397Z,97.5
2019-01-16T08:50:03.034Z,100.1
2019-01-16T08:51:03.647Z,99.1
2019-01-16T08:52:02.662Z,101.9
2019-01-16T08:53:03.057Z,101.5
2019-01-16T08:54:03.367Z,100.5
2019-01-16T08:55:03.016Z,102.2
2019-01-16T08:56:02.980Z,101
2019-01-16T08:57:03.397Z,100.5
2019-01-16T08:58:02.616Z,101.7
2019-01-16T08:59:02.908Z,99.4
2019-01-16T09:00:03.127Z,99.6
2019-01-16T09:01:03.548Z,99.6
2019-01-16T09:02:03.136Z,99.8
2019-01-16T09:03:03.485Z,100.1
2019-01-16T09:04:03.438Z,100.1
2019-01-16T09:05:03.277Z,97.3
2019-01-16T09:06:03.751Z,96.8
2019-01-16T09:07:03.418Z,94.5
2019-01-16T09:08:03.062Z,95.6
2019-01-16T09:09:02.878Z,94.2
2019-01-16T09:10:03.216Z,96.6
2019-01-16T09:11:03.251Z,95.6
2019-01-16T09:12:03.591Z,97.5
2019-01-16T09:13:03.507Z,96.3
2019-01-16T09:14:03.775Z,95.9
2019-01-16T09:15:02.882Z,96.1
2019-01-16T09:16:03.037Z,95.4
2019-01-16T09:17:03.750Z,93.3
2019-01-16T09:18:03.330Z,94.5
2019-01-16T09:19:03.040Z,91.4
2019-01-16T09:20:02.859Z,93.1
2019-01-16T09:21:03.483Z,93.5
2019-01-16T09:22:03.500Z,92.4
2019-01-16T09:23:03.444Z,92.4
2019-01-16T09:24:03.099Z,93.1
2019-01-16T09:25:02.703Z,92.6
2019-01-16T09:26:03.345Z,91.2
2019-01-16T09:27:03.481Z,92.1
2019-01-16T09:28:03.106Z,92.6
2019-01-16T09:29:03.495Z,93.5
2019-01-16T09:30:03.015Z,93.5
2019-01-16T09:31:03.219Z,93.5
2019-01-16T09:32:03.019Z,94
2019-01-16T09:33:03.351Z,94.5
2019-01-16T09:34:03.786Z,93.8
2019-01-16T09:35:03.108Z,93.3
2019-01-16T09:36:02.784Z,92.8
2019-01-16T09:37:02.941Z,94
2019-01-16T09:38:03.645Z,94.2
2019-01-16T09:39:03.443Z,94.7
2019-01-16T09:40:03.102Z,95.2
2019-01-16T09:41:03.415Z,94.5
2019-01-16T09:42:02.958Z,94.5
2019-01-16T09:43:02.768Z,92.6
2019-01-16T09:44:02.920Z,93.3
2019-01-16T09:45:03.277Z,92.4
2019-01-16T09:46:02.612Z,92.1
2019-01-16T09:47:03.422Z,90.7
2019-01-16T09:48:03.215Z,91.9
2019-01-16T09:49:03.813Z,90.7
2019-01-16T09:50:03.437Z,91.9
2019-01-16T09:51:03.458Z,90.5
2019-01-16T09:52:03.531Z,93.3
2019-01-16T09:53:02.957Z,91.7
2019-01-16T09:54:03.035Z,92.8
2019-01-16T09:55:03.304Z,94.9
2019-01-16T09:56:02.941Z,92.8
2019-01-16T09:57:03.653Z,94.9
2019-01-16T09:58:02.878Z,94.9
2019-01-16T09:59:03.567Z,94.5
2019-01-16T10:00:03.351Z,94.9
2019-01-16T10:01:03.162Z,95.2
2019-01-16T10:02:03.374Z,94.9
2019-01-16T10:03:03.656Z,93.3
2019-01-16T10:04:03.013Z,94.2
2019-01-16T10:05:03.005Z,93.8
2019-01-16T10:06:02.897Z,94.9
2019-01-16T10:07:02.931Z,94.5
2019-01-16T10:08:03.025Z,95.2
2019-01-16T10:09:03.195Z,94.2
2019-01-16T10:10:03.806Z,93.1
2019-01-16T10:11:02.777Z,91.4
2019-01-16T10:12:02.758Z,92.1
2019-01-16T10:13:03.511Z,91.2
2019-01-16T10:14:03.605Z,91
2019-01-16T10:15:02.958Z,90
2019-01-16T10:16:02.912Z,91
2019-01-16T10:17:03.052Z,91.4
2019-01-16T10:18:04.732Z,91.2
2019-01-16T10:19:03.598Z,92.6
2019-01-16T10:20:03.254Z,91.4
2019-01-16T10:21:03.536Z,93.3
2019-01-16T10:22:03.551Z,92.6
2019-01-16T10:23:03.562Z,94.2
2019-01-16T10:24:03.605Z,92.8
2019-01-16T10:25:03.206Z,94.9
2019-01-16T10:26:02.862Z,93.5
2019-01-16T10:27:02.761Z,94.9
2019-01-16T10:28:02.703Z,92.8
2019-01-16T10:29:03.104Z,93.1
2019-01-16T10:30:03.076Z,92.6
2019-01-16T10:31:03.395Z,92.4
2019-01-16T10:32:03.295Z,92.1
2019-01-16T10:33:02.969Z,91.4
2019-01-16T10:34:02.922Z,91.4
2019-01-16T10:35:03.107Z,89.6
2019-01-16T10:36:03.608Z,89.8
2019-01-16T10:37:02.833Z,90.5
2019-01-16T10:38:03.034Z,89.3
2019-01-16T10:39:03.075Z,89.3
2019-01-16T10:40:03.791Z,88.6
2019-01-16T10:41:03.691Z,90.5
2019-01-16T10:42:03.597Z,89.3
2019-01-16T10:43:03.530Z,91
2019-01-16T10:44:02.837Z,91.9
2019-01-16T10:45:03.063Z,90
2019-01-16T10:46:03.426Z,91.9
2019-01-16T10:47:03.084Z,90.5
2019-01-16T10:48:03.160Z,92.4
2019-01-16T10:49:03.676Z,91.7
2019-01-16T10:50:02.709Z,90.5
2019-01-16T10:51:03.576Z,90.5
2019-01-16T10:52:03.370Z,90.3
2019-01-16T10:53:02.637Z,88.6
2019-01-16T10:54:03.322Z,88.9
2019-01-16T10:55:03.052Z,88.4
2019-01-16T10:56:03.407Z,86.8
2019-01-16T10:57:03.612Z,86.8
2019-01-16T10:58:03.514Z,86.3
2019-01-16T10:59:03.248Z,85.8
2019-01-16T11:00:02.986Z,85.4
2019-01-16T11:01:03.324Z,86.5
2019-01-16T11:02:02.858Z,85.8
2019-01-16T11:03:03.246Z,86.1
2019-01-16T11:04:02.960Z,88.2
2019-01-16T11:05:03.482Z,86.5
2019-01-16T11:06:03.674Z,87
2019-01-16T11:07:03.387Z,85.6
2019-01-16T11:08:03.555Z,87.5
2019-01-16T11:09:03.629Z,87.5
2019-01-16T11:10:03.498Z,88.9
2019-01-16T11:11:02.976Z,88.9
2019-01-16T11:12:02.918Z,90.3
2019-01-16T11:13:03.258Z,90.5
2019-01-16T11:14:03.125Z,91.7
2019-01-16T11:15:02.817Z,91.2
2019-01-16T11:16:03.517Z,92.6
2019-01-16T11:17:03.254Z,91
2019-01-16T11:18:03.312Z,90
2019-01-16T11:19:03.205Z,90.3
2019-01-16T11:20:03.367Z,88.9
2019-01-16T11:21:11.407Z,88.4
2019-01-16T11:22:02.759Z,88.6
2019-01-16T11:23:03.226Z,88.2
2019-01-16T11:24:03.559Z,87.5
2019-01-16T11:25:03.505Z,85.6
2019-01-16T11:26:03.182Z,87.9
2019-01-16T11:27:03.024Z,87.2
2019-01-16T11:28:03.229Z,87.2
2019-01-16T11:29:02.782Z,88.6
2019-01-16T11:30:03.753Z,89.3
2019-01-16T11:31:02.864Z,89.3
2019-01-16T11:32:03.586Z,90.7
2019-01-16T11:33:03.586Z,91.9
2019-01-16T11:34:02.861Z,92.6
2019-01-16T11:35:03.616Z,91.9
2019-01-16T11:36:03.679Z,94
2019-01-16T11:37:03.565Z,94.2
2019-01-16T11:38:03.173Z,94.9
2019-01-16T11:39:03.440Z,96.6
2019-01-16T11:40:05.307Z,94.7
2019-01-16T11:41:02.682Z,97
2019-01-16T11:42:03.501Z,92.4
2019-01-16T11:43:02.886Z,94.5
2019-01-16T11:44:02.948Z,94.9
2019-01-16T11:45:03.312Z,93.5
2019-01-16T11:46:03.118Z,95.9
2019-01-16T11:47:02.964Z,94.7
2019-01-16T11:48:03.218Z,95.6
2019-01-16T11:49:02.973Z,96.1
2019-01-16T11:50:02.769Z,94.2
2019-01-16T11:51:03.027Z,95.2
2019-01-16T11:52:03.567Z,95.9
2019-01-16T11:53:03.649Z,94.9
2019-01-16T11:54:03.153Z,95.2
2019-01-16T11:55:03.502Z,95.6
2019-01-16T11:56:03.148Z,95.4
2019-01-16T11:57:02.745Z,96.3
2019-01-16T11:58:03.166Z,97.5
2019-01-16T11:59:02.929Z,98.7
2019-01-16T12:00:03.208Z,99.8
2019-01-16T12:01:03.128Z,99.1
2019-01-16T12:02:03.652Z,101.7
2019-01-16T12:03:02.654Z,100.1
2019-01-16T12:04:02.727Z,99.8
2019-01-16T12:05:03.535Z,101
2019-01-16T12:06:03.364Z,99.1
2019-01-16T12:07:03.065Z,100.8
2019-01-16T12:08:03.024Z,99.8
2019-01-16T12:09:03.096Z,98
2019-01-16T12:10:03.441Z,99.4
2019-01-16T12:11:02.866Z,96.6
2019-01-16T12:12:03.144Z,98.9
2019-01-16T12:13:03.386Z,98
2019-01-16T12:14:03.297Z,96.3
2019-01-16T12:15:03.673Z,97
2019-01-16T12:16:03.100Z,97.3
2019-01-16T12:17:03.444Z,97
2019-01-16T12:18:03.133Z,98.7
2019-01-16T12:19:02.784Z,97.3
2019-01-16T12:20:03.367Z,101.2
2019-01-16T12:21:03.173Z,100.3
2019-01-16T12:22:03.245Z,102.6
2019-01-16T12:23:03.251Z,102.2
2019-01-16T12:24:02.613Z,103.8
2019-01-16T12:25:03.027Z,102.2
2019-01-16T12:26:08.617Z,104.3
2019-01-16T12:27:02.665Z,101.9
2019-01-16T12:28:03.568Z,104.5
2019-01-16T12:29:03.362Z,102.4
2019-01-16T12:30:02.773Z,104.3
2019-01-16T12:31:03.728Z,102.2
2019-01-16T12:32:02.904Z,103.1
2019-01-16T12:33:03.653Z,103.1
2019-01-16T12:34:03.575Z,104
2019-01-16T12:35:03.615Z,103.3
2019-01-16T12:36:03.538Z,102.2
2019-01-16T12:37:03.176Z,101.9
2019-01-16T12:38:03.323Z,100.3
2019-01-16T12:39:02.812Z,99.6
2019-01-16T12:40:03.322Z,101.5
2019-01-16T12:41:02.986Z,101
2019-01-16T12:42:03.206Z,100.8
2019-01-16T12:43:03.561Z,102.9
2019-01-16T12:44:03.592Z,100.8
2019-01-16T12:45:03.682Z,100.8
2019-01-16T12:46:02.773Z,99.8
2019-01-16T12:47:02.955Z,101
2019-01-16T12:48:03.544Z,100.1
2019-01-16T12:49:03.435Z,100.8
2019-01-16T12:50:03.645Z,100.8
2019-01-16T12:51:03.697Z,101
2019-01-16T12:52:03.531Z,101.2
2019-01-16T12:53:03.100Z,101.9
2019-01-16T12:54:03.145Z,100.3
2019-01-16T12:55:03.265Z,101.9
2019-01-16T12:56:03.785Z,102.4
2019-01-16T12:57:02.978Z,101.7
2019-01-16T12:58:03.851Z,101.7
2019-01-16T12:59:02.832Z,101.7
2019-01-16T13:00:03.259Z,101
2019-01-16T13:01:03.880Z,100.1
2019-01-16T13:02:02.794Z,101.2
2019-01-16T13:03:03.559Z,98.4
2019-01-16T13:04:03.227Z,98.7
2019-01-16T13:05:03.838Z,98.9
2019-01-16T13:06:03.510Z,98.4
2019-01-16T13:07:03.576Z,98.9
2019-01-16T13:08:03.103Z,98.7
2019-01-16T13:09:03.530Z,99.4
2019-01-16T13:10:03.151Z,100.1
2019-01-16T13:11:03.038Z,98
2019-01-16T13:12:03.409Z,99.1
2019-01-16T13:13:03.429Z,99.1
2019-01-16T13:14:03.188Z,97.7
2019-01-16T13:15:03.646Z,98.9
2019-01-16T13:16:03.675Z,99.1
2019-01-16T13:17:03.289Z,98.7
2019-01-16T13:18:03.772Z,99.4
2019-01-16T13:19:02.758Z,98.4
2019-01-16T13:20:03.544Z,98.2
2019-01-16T13:21:03.522Z,98